Time;durP1;ratioP1;P1;durP2;ratioP2;P2;SDS_P1;SDS_P2;PMS_P1;PMS_P2;Temp;Humidity;BMP_temperature;BMP_pressure;BME280_temperature;BME280_humidity;BME280_pressure;Samples;Min_cycle;Max_cycle;Signal;HPM_P1;HPM_P2
2020/12/28 16:44:10;;;;;;;3.88;2.80;;;;;;;;;;5069407;28;20578;-80
2020/12/28 16:46:36;;;;;;;3.97;2.67;;;6.70;93.60;;;;;;5069636;28;20178;-80
2020/12/28 16:49:02;;;;;;;4.82;2.63;;;6.80;96.00;;;;;;5069461;28;20183;-80
2020/12/28 16:51:27;;;;;;;2.63;2.22;;;6.70;93.60;;;;;;5069307;28;21029;-80
2020/12/28 16:53:53;;;;;;;2.42;1.88;;;6.80;93.60;;;;;;5068794;28;20260;-80
2020/12/28 16:56:19;;;;;;;2.47;2.03;;;6.80;93.80;;;;;;5067996;28;20168;-80
2020/12/28 16:58:48;;;;;;;2.30;2.10;;;6.80;93.70;;;;;;5069183;28;20191;-80
2020/12/28 17:01:15;;;;;;;2.42;1.98;;;6.90;93.80;;;;;;5067820;28;20183;-80
2020/12/28 17:03:42;;;;;;;2.20;2.00;;;6.90;93.60;;;;;;5069659;28;20207;-80
2020/12/28 17:06:08;;;;;;;2.25;1.83;;;6.90;93.80;;;;;;5051035;28;20210;-80
2020/12/28 17:08:35;;;;;;;2.33;2.13;;;;;;;;;;5068704;28;20202;-82
2020/12/28 17:13:28;;;;;;;2.10;1.88;;;7.00;92.80;;;;;;5130569;27;20843;-80
2020/12/28 17:15:54;;;;;;;2.10;1.90;;;7.00;92.70;;;;;;5130521;27;20175;-80
2020/12/28 17:18:20;;;;;;;4.05;1.88;;;7.00;93.00;;;;;;5129331;28;20288;-80
2020/12/28 17:20:46;;;;;;;2.00;1.80;;;;;;;;;;5130197;27;20161;-80
2020/12/28 17:23:12;;;;;;;3.42;2.40;;;;;;;;;;5129112;28;20571;-80
2020/12/28 17:25:38;;;;;;;3.92;2.20;;;;;;;;;;5128723;28;20173;-80
2020/12/28 17:28:04;;;;;;;2.65;2.40;;;6.90;92.90;;;;;;5129071;28;20172;-80
2020/12/28 17:30:30;;;;;;;3.08;2.53;;;7.00;93.30;;;;;;5128822;28;20169;-80
2020/12/28 17:32:55;;;;;;;3.40;2.92;;;6.80;93.70;;;;;;5129994;27;20204;-80
2020/12/28 17:35:21;;;;;;;3.67;3.35;;;6.90;93.90;;;;;;5130105;27;20215;-80
2020/12/28 17:37:47;;;;;;;5.70;3.10;;;6.80;94.10;;;;;;5128695;28;20675;-80
2020/12/28 17:40:13;;;;;;;4.47;3.80;;;6.80;94.30;;;;;;5129768;27;20190;-80
2020/12/28 17:42:42;;;;;;;6.03;4.18;;;6.80;94.40;;;;;;5130029;27;20192;-81
2020/12/28 17:45:08;;;;;;;4.20;3.78;;;6.70;94.30;;;;;;5130117;27;20189;-80
2020/12/28 17:47:34;;;;;;;4.82;4.10;;;6.70;94.70;;;;;;5129775;27;20165;-80
2020/12/28 17:50:00;;;;;;;4.43;3.95;;;6.60;94.90;;;;;;5129886;27;20273;-80
2020/12/28 17:52:26;;;;;;;4.43;4.03;;;6.60;95.00;;;;;;5129585;27;20209;-80
2020/12/28 17:54:52;;;;;;;6.82;4.90;;;6.50;95.10;;;;;;5129319;27;20230;-80
2020/12/28 17:57:17;;;;;;;6.75;4.95;;;6.50;95.30;;;;;;5129757;27;20225;-80
2020/12/28 17:59:43;;;;;;;6.03;4.85;;;6.50;95.40;;;;;;5129745;27;20193;-80
2020/12/28 18:02:09;;;;;;;4.70;4.25;;;6.40;95.50;;;;;;5129500;27;20244;-80
2020/12/28 18:04:36;;;;;;;5.85;5.15;;;6.40;95.70;;;;;;5129565;28;20210;-80
2020/12/28 18:07:02;;;;;;;6.75;5.43;;;6.40;96.00;;;;;;5129464;28;20180;-80
2020/12/28 18:09:28;;;;;;;7.45;5.30;;;6.50;99.20;;;;;;5127937;28;20189;-80
2020/12/28 18:11:54;;;;;;;5.57;5.07;;;;;;;;;;5129254;27;20270;-80
2020/12/28 18:14:19;;;;;;;6.00;5.10;;;6.20;96.50;;;;;;5127919;28;20189;-80
2020/12/28 18:16:46;;;;;;;5.28;4.78;;;6.20;96.80;;;;;;5129441;27;20166;-80
2020/12/28 18:19:12;;;;;;;6.07;5.18;;;6.20;97.00;;;;;;5128010;28;20254;-80
2020/12/28 18:21:38;;;;;;;8.07;5.53;;;5.70;99.50;;;;;;5129282;27;20193;-80
2020/12/28 18:24:04;;;;;;;6.00;5.00;;;6.10;97.10;;;;;;5119534;27;20602;-80
2020/12/28 18:26:30;;;;;;;6.22;5.32;;;6.10;97.10;;;;;;5114276;28;20651;-80
2020/12/28 18:28:57;;;;;;;5.90;5.22;;;;;;;;;;5115245;28;20193;-79
2020/12/28 18:31:23;;;;;;;6.75;5.28;;;5.60;99.90;;;;;;5115457;28;20186;-80
2020/12/28 18:33:50;;;;;;;6.28;5.25;;;6.00;96.40;;;;;;5113965;28;20227;-80
2020/12/28 18:36:16;;;;;;;6.78;5.65;;;6.00;96.30;;;;;;5114022;28;20170;-80
2020/12/28 18:38:45;;;;;;;8.80;6.07;;;5.90;96.30;;;;;;5114912;28;20235;-80
2020/12/28 18:41:11;;;;;;;8.73;6.53;;;5.90;96.60;;;;;;5115380;28;20728;-80
2020/12/28 18:43:37;;;;;;;6.18;5.47;;;5.80;96.70;;;;;;5114998;27;20288;-79
2020/12/28 18:46:04;;;;;;;7.05;5.70;;;5.80;96.80;;;;;;5115137;28;20205;-80
2020/12/28 18:48:30;;;;;;;6.85;6.15;;;5.80;97.00;;;;;;5114949;28;20276;-80
2020/12/28 18:50:57;;;;;;;5.90;5.30;;;5.80;97.10;;;;;;5115205;28;20631;-80
2020/12/28 18:53:23;;;;;;;7.05;5.68;;;5.70;97.20;;;;;;5114456;28;20205;-80
2020/12/28 18:55:50;;;;;;;6.30;5.30;;;5.70;97.40;;;;;;5115095;28;20162;-80
2020/12/28 18:58:17;;;;;;;6.05;5.32;;;5.70;97.60;;;;;;5114657;28;20182;-80
2020/12/28 19:00:43;;;;;;;7.78;5.78;;;5.60;97.60;;;;;;5114942;28;20177;-80
2020/12/28 19:03:11;;;;;;;6.05;5.45;;;5.60;97.90;;;;;;5114837;28;20658;-80
2020/12/28 19:05:37;;;;;;;7.18;5.88;;;5.70;98.30;;;;;;5114582;28;20158;-80
2020/12/28 19:08:04;;;;;;;6.22;5.18;;;5.30;99.10;;;;;;5114855;28;20767;-80
2020/12/28 19:10:31;;;;;;;6.55;5.75;;;5.60;98.50;;;;;;5114275;28;20174;-80
2020/12/28 19:12:57;;;;;;;6.45;5.55;;;5.60;98.70;;;;;;5114285;28;20239;-80
2020/12/28 19:15:23;;;;;;;6.78;5.70;;;5.60;99.00;;;;;;5113349;28;20169;-80
2020/12/28 19:17:49;;;;;;;7.72;5.78;;;5.60;99.10;;;;;;5114594;28;20219;-80
2020/12/28 19:20:15;;;;;;;7.80;5.57;;;5.60;99.20;;;;;;5114171;28;20713;-79
2020/12/28 19:22:41;;;;;;;6.35;5.32;;;5.50;99.50;;;;;;5114527;28;20173;-80
2020/12/28 19:25:07;;;;;;;6.25;5.07;;;5.50;99.90;;;;;;5113931;28;20194;-80
2020/12/28 19:27:35;;;;;;;6.45;5.30;;;5.50;99.90;;;;;;5114411;28;20163;-80
2020/12/28 19:30:04;;;;;;;6.30;5.28;;;5.50;99.90;;;;;;5114257;28;20238;-80
2020/12/28 19:32:30;;;;;;;7.70;5.32;;;5.10;99.90;;;;;;5114348;27;20190;-80
2020/12/28 19:34:56;;;;;;;6.28;5.25;;;5.50;99.90;;;;;;5111901;28;20211;-80
2020/12/28 19:37:22;;;;;;;7.18;4.93;;;5.50;99.90;;;;;;5113246;28;20180;-80
2020/12/28 19:39:49;;;;;;;6.25;5.38;;;5.50;99.90;;;;;;5112237;28;20193;-80
2020/12/28 19:42:17;;;;;;;5.10;4.60;;;5.40;99.90;;;;;;5095951;28;20538;-80
2020/12/28 19:44:43;;;;;;;5.40;4.82;;;5.40;99.90;;;;;;5113978;28;20683;-80
2020/12/28 19:47:09;;;;;;;5.22;4.72;;;5.40;99.90;;;;;;5112711;28;20177;-80
2020/12/28 19:49:35;;;;;;;7.25;5.28;;;5.40;99.90;;;;;;5113823;28;20177;-80
2020/12/28 19:52:01;;;;;;;7.25;5.15;;;5.30;99.90;;;;;;5112633;28;20572;-80
2020/12/28 19:54:26;;;;;;;6.43;5.55;;;5.30;99.90;;;;;;5113307;28;20194;-80
2020/12/28 19:56:52;;;;;;;5.30;4.80;;;5.30;99.90;;;;;;5113518;28;20173;-80
2020/12/28 19:59:21;;;;;;;6.15;5.28;;;5.30;99.90;;;;;;5113951;28;20189;-80
2020/12/28 20:01:48;;;;;;;5.57;4.90;;;5.30;99.90;;;;;;5113616;28;20237;-80
2020/12/28 20:04:14;;;;;;;4.95;4.55;;;5.30;99.90;;;;;;5112250;28;20196;-80
2020/12/28 20:06:40;;;;;;;4.50;4.10;;;5.30;99.90;;;;;;5113358;28;20173;-80
2020/12/28 20:09:06;;;;;;;4.50;4.05;;;5.20;99.90;;;;;;5112113;28;20194;-80
2020/12/28 20:11:32;;;;;;;4.32;3.72;;;5.20;99.90;;;;;;5113204;28;20304;-80
2020/12/28 20:13:58;;;;;;;3.90;3.50;;;5.20;99.90;;;;;;5112196;28;20239;-80
2020/12/28 20:16:24;;;;;;;4.40;3.80;;;5.10;99.90;;;;;;5112018;28;20174;-80
2020/12/28 20:18:50;;;;;;;4.05;3.65;;;5.10;99.90;;;;;;5113374;28;20582;-79
2020/12/28 20:21:21;;;;;;;3.90;3.50;;;5.10;99.90;;;;;;5111869;28;20170;-79
2020/12/28 20:23:47;;;;;;;4.43;4.03;;;5.10;99.90;;;;;;5111603;28;20193;-80
2020/12/28 20:26:13;;;;;;;3.90;3.55;;;5.10;99.90;;;;;;5111787;28;20261;-80
2020/12/28 20:28:39;;;;;;;3.80;3.50;;;5.10;99.90;;;;;;5111901;28;20277;-80
2020/12/28 20:31:07;;;;;;;3.70;3.40;;;5.10;99.90;;;;;;5113258;28;20166;-80
2020/12/28 20:33:38;;;;;;;3.70;3.40;;;5.10;99.90;;;;;;5111660;28;20205;-80
2020/12/28 20:36:05;;;;;;;3.63;3.33;;;5.00;99.90;;;;;;5112979;28;20192;-79
2020/12/28 20:38:32;;;;;;;3.78;3.47;;;5.00;99.90;;;;;;5111268;28;20196;-79
2020/12/28 20:40:58;;;;;;;3.72;3.42;;;5.00;99.90;;;;;;5113074;28;20646;-80
2020/12/28 20:43:25;;;;;;;4.05;3.70;;;5.00;99.90;;;;;;5112848;28;20194;-79
2020/12/28 20:45:52;;;;;;;3.63;3.33;;;5.00;99.90;;;;;;5112832;28;20581;-79
2020/12/28 20:48:20;;;;;;;3.53;3.22;;;5.00;99.90;;;;;;5112506;28;20189;-80
2020/12/28 20:50:47;;;;;;;3.33;3.03;;;5.00;99.90;;;;;;5112847;28;20157;-80
2020/12/28 20:53:14;;;;;;;3.70;3.40;;;5.00;99.90;;;;;;5111318;28;20213;-79
2020/12/28 20:55:41;;;;;;;3.80;3.50;;;5.00;99.90;;;;;;5111597;28;20174;-80
2020/12/28 20:58:12;;;;;;;3.78;3.45;;;5.00;99.90;;;;;;5112578;28;20623;-80
2020/12/28 21:00:39;;;;;;;3.35;3.05;;;5.00;99.90;;;;;;5112677;28;20166;-80
2020/12/28 21:03:06;;;;;;;3.35;3.05;;;5.00;99.90;;;;;;5111134;28;20174;-79
2020/12/28 21:05:33;;;;;;;3.75;3.45;;;5.00;99.90;;;;;;5112752;28;20192;-79
2020/12/28 21:07:59;;;;;;;3.53;3.22;;;5.00;99.90;;;;;;5111147;28;20673;-80
2020/12/28 21:10:25;;;;;;;3.67;3.38;;;4.90;99.90;;;;;;5111074;28;20162;-80
2020/12/28 21:12:51;;;;;;;3.50;3.30;;;4.90;99.90;;;;;;5110925;28;20225;-79
2020/12/28 21:15:17;;;;;;;3.78;3.42;;;5.00;99.90;;;;;;5112336;28;20525;-80
2020/12/28 21:17:44;;;;;;;4.13;3.80;;;5.00;99.90;;;;;;5112442;28;20193;-79
2020/12/28 21:20:10;;;;;;;3.60;3.30;;;4.90;99.90;;;;;;5111281;28;20182;-79
2020/12/28 21:22:36;;;;;;;4.00;3.70;;;4.90;99.90;;;;;;5112586;28;20190;-80
2020/12/28 21:25:04;;;;;;;4.15;3.85;;;4.90;99.90;;;;;;5110779;28;20204;-79
2020/12/28 21:27:30;;;;;;;4.10;3.70;;;5.00;99.90;;;;;;5112516;28;20166;-79
2020/12/28 21:29:56;;;;;;;4.10;3.70;;;5.00;99.90;;;;;;5110779;28;20194;-80
2020/12/28 21:32:21;;;;;;;4.45;4.15;;;5.00;99.90;;;;;;5112386;28;20205;-79
2020/12/28 21:34:47;;;;;;;4.05;3.75;;;5.00;99.90;;;;;;5110855;28;20193;-80
2020/12/28 21:37:13;;;;;;;4.40;4.00;;;5.00;99.90;;;;;;5112436;28;20177;-80
2020/12/28 21:39:38;;;;;;;4.07;3.78;;;5.00;99.90;;;;;;5110598;28;20197;-79
2020/12/28 21:42:04;;;;;;;4.60;4.30;;;4.90;99.90;;;;;;5111043;28;20170;-79
2020/12/28 21:44:30;;;;;;;4.03;3.70;;;4.90;99.90;;;;;;5110710;28;20205;-80
2020/12/28 21:46:56;;;;;;;4.07;3.70;;;4.90;99.90;;;;;;5112269;28;20169;-79
2020/12/28 21:49:22;;;;;;;4.22;3.92;;;4.90;99.90;;;;;;5110961;28;20255;-80
2020/12/28 21:51:51;;;;;;;4.80;4.40;;;4.90;99.90;;;;;;5112294;28;20202;-80
2020/12/28 21:54:20;;;;;;;4.80;4.40;;;5.00;99.90;;;;;;5111935;28;20190;-80
2020/12/28 21:56:46;;;;;;;5.10;4.60;;;5.00;99.90;;;;;;5112080;28;20173;-80
2020/12/28 21:59:12;;;;;;;4.68;4.38;;;5.00;99.90;;;;;;5113957;28;20204;-80
2020/12/28 22:01:46;;;;;;;5.07;4.68;;;5.00;99.90;;;;;;5114610;28;20174;-80
2020/12/28 22:04:12;;;;;;;5.03;4.65;;;5.00;99.90;;;;;;5116199;27;20194;-80
2020/12/28 22:06:37;;;;;;;5.13;4.72;;;4.90;99.90;;;;;;5114724;28;20532;-80
2020/12/28 22:09:03;;;;;;;4.80;4.40;;;4.90;99.90;;;;;;5114196;28;20280;-80
2020/12/28 22:11:30;;;;;;;4.53;4.13;;;4.90;99.90;;;;;;5114182;28;20229;-79
2020/12/28 22:14:02;;;;;;;5.18;4.78;;;5.00;99.90;;;;;;5115693;28;20200;-79
2020/12/28 22:16:27;;;;;;;4.88;4.47;;;4.90;99.90;;;;;;5115597;28;20210;-80
2020/12/28 22:18:53;;;;;;;5.10;4.70;;;4.90;99.90;;;;;;5115639;28;20651;-79
2020/12/28 22:21:19;;;;;;;4.90;4.50;;;4.90;99.90;;;;;;5115600;28;20166;-79
2020/12/28 22:23:45;;;;;;;4.65;4.25;;;4.90;99.90;;;;;;5115067;28;20239;-80
2020/12/28 22:26:15;;;;;;;4.95;4.55;;;5.00;99.90;;;;;;5115427;28;20589;-79
